Time;durP1;ratioP1;P1;durP2;ratioP2;P2;SDS_P1;SDS_P2;PMS_P1;PMS_P2;Temp;Humidity;BMP_temperature;BMP_pressure;BME280_temperature;BME280_humidity;BME280_pressure;Samples;Min_cycle;Max_cycle;Signal;HPM_P1;HPM_P2
2023/10/31 00:01:37;;;;;;;3.53;1.50;;;;;;;12.48;84.21;91310.69;2054829;70;20154;-76
2023/10/31 00:04:04;;;;;;;2.13;1.20;;;;;;;12.39;84.49;91317.47;2054867;69;20516;-76
2023/10/31 00:06:29;;;;;;;3.00;0.70;;;;;;;12.45;84.14;91326.84;2054932;69;20146;-76
2023/10/31 00:08:56;;;;;;;2.00;0.88;;;;;;;12.33;83.55;91340.56;2054754;69;20145;-76
2023/10/31 00:11:21;;;;;;;1.27;0.50;;;;;;;12.29;83.92;91354.53;2054837;69;20150;-76
2023/10/31 00:13:47;;;;;;;0.65;0.30;;;;;;;12.31;83.34;91359.53;2055334;69;20586;-76
2023/10/31 00:16:12;;;;;;;1.17;0.30;;;;;;;12.22;82.62;91364.16;2055161;69;20134;-75
2023/10/31 00:18:38;;;;;;;1.00;0.40;;;;;;;11.94;83.23;91363.94;2055199;69;20153;-75
2023/10/31 00:21:05;;;;;;;4.03;0.30;;;;;;;12.03;83.80;91382.59;2055117;69;20138;-75
2023/10/31 00:23:31;;;;;;;1.85;0.40;;;;;;;12.23;82.45;91381.81;2054910;69;20214;-75
2023/10/31 00:25:56;;;;;;;0.25;0.25;;;;;;;12.03;83.37;91385.41;2055099;69;20173;-75
2023/10/31 00:28:23;;;;;;;3.30;0.35;;;;;;;11.98;83.59;91405.66;2054975;69;20193;-75
2023/10/31 00:31:00;;;;;;;1.15;0.43;;;;;;;11.94;83.74;91411.88;2055239;69;20122;-74
2023/10/31 00:33:28;;;;;;;1.17;0.30;;;;;;;12.06;83.15;91401.03;2055139;69;20181;-77
2023/10/31 00:35:53;;;;;;;3.40;0.30;;;;;;;12.04;83.25;91412.22;2054550;69;20149;-75
2023/10/31 00:38:19;;;;;;;1.60;0.30;;;;;;;11.93;83.43;91408.34;2057145;69;20153;-76
2023/10/31 00:40:45;;;;;;;3.33;0.40;;;;;;;11.81;84.36;91407.88;2054115;70;20161;-74
2023/10/31 00:43:10;;;;;;;0.63;0.38;;;;;;;11.93;83.41;91404.81;2054993;69;20169;-74
2023/10/31 00:45:36;;;;;;;2.90;0.50;;;;;;;11.97;83.19;91413.41;2054545;69;20165;-74
2023/10/31 00:48:02;;;;;;;2.83;0.40;;;;;;;11.88;83.63;91417.31;2054986;69;20138;-75
2023/10/31 00:50:28;;;;;;;0.82;0.30;;;;;;;11.91;83.26;91416.75;2057359;69;20605;-74
2023/10/31 00:52:54;;;;;;;1.20;0.40;;;;;;;11.72;84.22;91425.88;2054831;69;20154;-75
2023/10/31 00:55:19;;;;;;;3.05;0.60;;;;;;;11.89;83.42;91432.84;2054280;69;20541;-75
2023/10/31 00:57:45;;;;;;;1.85;0.60;;;;;;;11.89;83.54;91433.56;2057080;69;20146;-75
2023/10/31 01:00:12;;;;;;;1.42;0.40;;;;;;;11.92;83.40;91446.38;2054301;69;20271;-74
2023/10/31 01:02:37;;;;;;;3.13;0.50;;;;;;;11.90;83.13;91448.41;2055133;69;20146;-75
2023/10/31 01:05:04;;;;;;;0.93;0.40;;;;;;;11.81;82.39;91424.78;2055176;69;20724;-76
2023/10/31 01:07:30;;;;;;;2.58;0.40;;;;;;;11.71;81.72;91416.69;2051669;70;20146;-75
2023/10/31 01:09:56;;;;;;;1.45;0.30;;;;;;;11.76;82.12;91437.28;2054307;70;20490;-74
2023/10/31 01:12:22;;;;;;;0.75;0.32;;;;;;;11.70;81.76;91423.72;2055191;69;20149;-76
2023/10/31 01:14:49;;;;;;;1.65;0.40;;;;;;;11.68;80.85;91431.34;2054918;69;20166;-77
2023/10/31 01:17:15;;;;;;;1.13;0.68;;;;;;;11.67;80.73;91430.63;2054816;69;20134;-76
2023/10/31 01:19:41;;;;;;;0.25;0.17;;;;;;;11.55;80.64;91423.84;2054828;69;20280;-76
2023/10/31 01:22:10;;;;;;;0.63;0.30;;;;;;;11.64;80.54;91426.31;2055016;69;20145;-75
2023/10/31 01:24:36;;;;;;;0.30;0.13;;;;;;;11.62;80.36;91443.16;2054293;70;20171;-75
2023/10/31 01:27:02;;;;;;;0.50;0.30;;;;;;;11.61;80.55;91449.44;2057121;69;20159;-74
2023/10/31 01:29:28;;;;;;;1.27;0.40;;;;;;;11.60;80.71;91448.00;2051545;70;20593;-74
2023/10/31 01:31:53;;;;;;;0.13;0.13;;;;;;;11.55;80.95;91435.84;2057004;69;20243;-74
2023/10/31 01:34:19;;;;;;;2.92;0.35;;;;;;;11.48;81.89;91430.63;2054326;70;20284;-74
2023/10/31 01:36:45;;;;;;;2.63;0.28;;;;;;;11.57;81.22;91432.38;2054836;70;20141;-75
2023/10/31 01:39:11;;;;;;;1.15;0.25;;;;;;;11.56;81.97;91426.00;2054441;70;20165;-75
2023/10/31 01:41:37;;;;;;;1.27;0.40;;;;;;;11.56;82.06;91423.19;2051539;70;20169;-76
2023/10/31 01:44:03;;;;;;;2.17;0.30;;;;;;;11.51;81.98;91423.72;2054992;69;20146;-76
2023/10/31 01:46:29;;;;;;;2.75;0.40;;;;;;;11.45;82.20;91424.19;2054689;69;20161;-75
2023/10/31 01:48:55;;;;;;;1.23;0.30;;;;;;;11.43;82.44;91429.75;2056965;69;20176;-74
2023/10/31 01:51:22;;;;;;;1.23;0.40;;;;;;;11.20;82.41;91428.19;2054696;69;20142;-75
2023/10/31 01:53:48;;;;;;;1.17;0.30;;;;;;;10.61;84.85;91434.34;2056953;69;20157;-76
2023/10/31 01:56:14;;;;;;;1.58;0.50;;;;;;;11.07;83.99;91440.34;2054822;69;20161;-75
2023/10/31 01:58:41;;;;;;;0.52;0.30;;;;;;;11.31;83.16;91460.28;2054186;70;20237;-75
2023/10/31 02:01:07;;;;;;;1.00;0.30;;;;;;;11.30;82.62;91447.56;2057157;69;20165;-73
2023/10/31 02:03:33;;;;;;;0.93;0.40;;;;;;;11.41;82.23;91461.41;2054899;69;20520;-74
2023/10/31 02:05:59;;;;;;;1.00;0.30;;;;;;;11.41;81.98;91452.94;2054224;70;20154;-74
2023/10/31 02:08:27;;;;;;;2.33;0.22;;;;;;;11.49;81.50;91437.69;2054725;70;20147;-74
2023/10/31 02:10:53;;;;;;;0.88;0.38;;;;;;;11.38;82.22;91445.06;2054704;69;20118;-74
2023/10/31 02:13:18;;;;;;;0.80;0.30;;;;;;;11.29;82.45;91472.19;2055628;69;20172;-75
2023/10/31 02:15:45;;;;;;;4.43;0.95;;;;;;;10.60;85.66;91483.53;2054153;70;20142;-76
2023/10/31 02:18:12;;;;;;;1.80;0.60;;;;;;;11.03;84.48;91476.81;2053696;69;20181;-75
2023/10/31 02:20:37;;;;;;;2.15;0.40;;;;;;;11.21;83.41;91471.88;2053286;69;20169;-76
2023/10/31 02:23:04;;;;;;;3.08;0.30;;;;;;;11.24;82.70;91481.88;2053838;70;20146;-75
2023/10/31 02:25:30;;;;;;;0.80;0.30;;;;;;;11.19;82.96;91494.34;2056676;69;20274;-77
2023/10/31 02:27:58;;;;;;;1.80;0.50;;;;;;;11.09;83.41;91499.59;2056526;69;20138;-76
2023/10/31 02:30:24;;;;;;;1.85;0.50;;;;;;;11.22;82.86;91498.69;2053927;70;20150;-76
2023/10/31 02:32:50;;;;;;;2.58;0.60;;;;;;;11.17;83.02;91506.25;2053952;69;20149;-76
2023/10/31 02:35:19;;;;;;;0.20;0.20;;;;;;;11.15;82.11;91513.91;2054739;70;20226;-77
2023/10/31 02:37:46;;;;;;;1.30;0.20;;;;;;;11.19;82.45;91519.69;2054175;69;20139;-76
2023/10/31 02:40:13;;;;;;;0.70;0.40;;;;;;;11.19;82.41;91526.06;2054269;69;20150;-76
2023/10/31 02:42:39;;;;;;;1.70;0.35;;;;;;;11.16;82.13;91504.81;2054124;70;20209;-76
2023/10/31 02:45:08;;;;;;;0.40;0.30;;;;;;;11.04;82.60;91490.25;2054739;69;20625;-76
2023/10/31 02:47:34;;;;;;;1.30;0.40;;;;;;;10.63;83.89;91477.38;2054461;69;20526;-76
2023/10/31 02:49:59;;;;;;;3.20;0.50;;;;;;;10.40;85.08;91491.84;2054134;70;20157;-74
2023/10/31 02:52:25;;;;;;;1.00;0.63;;;;;;;10.26;83.53;91486.34;2053154;70;20253;-76
2023/10/31 02:54:51;;;;;;;0.47;0.40;;;;;;;10.54;83.19;91492.47;2053089;70;20174;-76
2023/10/31 02:57:17;;;;;;;3.55;0.40;;;;;;;10.81;82.38;91483.00;2053447;70;20142;-76
2023/10/31 02:59:44;;;;;;;1.08;0.40;;;;;;;10.78;82.19;91483.56;2054517;69;20697;-77
2023/10/31 03:02:11;;;;;;;1.15;0.38;;;;;;;10.78;82.14;91492.00;2054075;69;20161;-75
2023/10/31 03:04:37;;;;;;;1.30;0.30;;;;;;;10.69;82.18;91482.50;2053838;69;20146;-76
2023/10/31 03:07:03;;;;;;;0.63;0.30;;;;;;;10.66;82.26;91487.31;2053902;70;20236;-76
2023/10/31 03:09:28;;;;;;;2.40;0.22;;;;;;;10.72;81.96;91505.81;2056940;69;20161;-75
2023/10/31 03:11:54;;;;;;;1.05;0.38;;;;;;;10.82;82.00;91495.72;2054960;69;20149;-75
2023/10/31 03:14:20;;;;;;;0.63;0.20;;;;;;;10.89;81.88;91494.59;2054856;69;20177;-75
2023/10/31 03:16:45;;;;;;;0.93;0.30;;;;;;;10.82;82.44;91495.72;2054205;70;20225;-75
2023/10/31 03:19:11;;;;;;;1.65;0.75;;;;;;;10.85;82.29;91496.50;2054228;70;20536;-75
2023/10/31 03:21:37;;;;;;;2.85;0.20;;;;;;;10.82;82.41;91495.00;2056982;69;20241;-76
2023/10/31 03:24:02;;;;;;;1.13;0.35;;;;;;;10.86;82.04;91486.72;2056921;69;20158;-76
2023/10/31 03:26:28;;;;;;;1.77;0.50;;;;;;;10.88;82.12;91486.78;2054258;70;20157;-77
2023/10/31 03:28:57;;;;;;;3.30;0.40;;;;;;;10.24;83.33;91486.28;2054733;69;20245;-76
2023/10/31 03:31:23;;;;;;;0.32;0.32;;;;;;;10.54;83.20;91481.22;2054964;69;20210;-76
2023/10/31 03:33:49;;;;;;;1.98;0.40;;;;;;;10.68;82.83;91481.78;2054332;70;20231;-76
2023/10/31 03:36:15;;;;;;;1.00;0.32;;;;;;;10.69;82.56;91471.25;2054957;69;20149;-75
2023/10/31 03:38:41;;;;;;;2.78;0.20;;;;;;;10.56;82.81;91466.50;2056871;69;20134;-76
2023/10/31 03:41:07;;;;;;;0.70;0.70;;;;;;;10.60;82.57;91467.38;2054718;69;20138;-76
2023/10/31 03:43:33;;;;;;;0.40;0.40;;;;;;;10.71;82.40;91462.88;2057008;69;20528;-75
2023/10/31 03:45:59;;;;;;;0.47;0.30;;;;;;;10.77;81.79;91460.34;2054839;69;20157;-76
2023/10/31 03:48:25;;;;;;;0.60;0.28;;;;;;;10.60;82.77;91472.28;2054831;69;20687;-75
2023/10/31 03:50:51;;;;;;;0.47;0.32;;;;;;;10.57;82.52;91460.22;2054812;69;20184;-76
2023/10/31 03:53:16;;;;;;;0.63;0.40;;;;;;;10.70;82.30;91464.25;2051454;70;20158;-75
2023/10/31 03:55:42;;;;;;;0.45;0.38;;;;;;;10.66;82.46;91452.84;2057121;69;20157;-75
2023/10/31 03:58:08;;;;;;;3.30;0.50;;;;;;;10.71;81.75;91457.25;2057504;69;20207;-76
2023/10/31 04:00:33;;;;;;;2.13;0.20;;;;;;;10.76;81.72;91470.13;2054746;70;20157;-75
2023/10/31 04:02:59;;;;;;;0.43;0.30;;;;;;;10.57;82.02;91462.31;2054937;70;20220;-76
2023/10/31 04:05:25;;;;;;;1.42;0.22;;;;;;;10.67;82.05;91452.22;2055315;69;20138;-76
2023/10/31 04:07:50;;;;;;;1.40;0.20;;;;;;;10.64;81.93;91441.50;2055271;69;20159;-76
2023/10/31 04:10:17;;;;;;;0.60;0.20;;;;;;;10.68;82.06;91461.38;2055202;69;20236;-76
2023/10/31 04:12:43;;;;;;;0.70;0.17;;;;;;;10.51;82.33;91465.59;2057483;69;20136;-74
2023/10/31 04:15:09;;;;;;;0.30;0.30;;;;;;;10.64;82.17;91486.53;2055214;69;20150;-75
2023/10/31 04:17:35;;;;;;;1.08;0.30;;;;;;;10.62;81.89;91484.34;2055157;69;20150;-74
2023/10/31 04:20:01;;;;;;;0.70;0.30;;;;;;;10.64;82.12;91495.69;2054723;70;20613;-75
2023/10/31 04:22:29;;;;;;;2.00;0.35;;;;;;;10.69;80.66;91502.22;2055422;69;20147;-76
2023/10/31 04:24:56;;;;;;;3.20;0.50;;;;;;;10.66;81.98;91495.03;2055459;69;20232;-76
2023/10/31 04:27:22;;;;;;;1.40;0.40;;;;;;;10.65;81.48;91479.53;2055560;69;20172;-75
2023/10/31 04:29:48;;;;;;;1.67;0.40;;;;;;;10.66;81.80;91495.03;2055233;69;20145;-75
2023/10/31 04:32:14;;;;;;;1.10;0.30;;;;;;;10.64;82.28;91512.59;2055254;69;20143;-76
2023/10/31 04:34:39;;;;;;;1.63;0.90;;;;;;;10.58;81.75;91509.53;2055248;69;20241;-76
2023/10/31 04:37:05;;;;;;;1.63;0.55;;;;;;;10.68;82.16;91532.44;2055163;69;20224;-76
2023/10/31 04:39:31;;;;;;;1.00;0.50;;;;;;;10.70;80.65;91537.44;2054916;69;20158;-75
2023/10/31 04:41:57;;;;;;;1.98;0.57;;;;;;;10.65;81.51;91547.78;2055140;69;20529;-75
2023/10/31 04:44:22;;;;;;;1.20;0.40;;;;;;;10.63;82.08;91533.66;2055240;69;20156;-75
2023/10/31 04:46:48;;;;;;;1.27;0.47;;;;;;;10.63;81.77;91527.31;2055208;69;20158;-75
2023/10/31 04:49:15;;;;;;;4.68;0.55;;;;;;;10.68;82.19;91534.53;2055122;69;20145;-75
2023/10/31 04:51:41;;;;;;;1.27;0.60;;;;;;;10.34;82.73;91519.72;2055087;69;20268;-76
2023/10/31 04:54:07;;;;;;;2.40;0.80;;;;;;;10.29;83.69;91509.69;2054987;69;20146;-76
2023/10/31 04:56:33;;;;;;;0.82;0.47;;;;;;;10.53;82.49;91513.50;2055297;69;20153;-75
2023/10/31 04:58:58;;;;;;;5.97;2.45;;;;;;;10.37;82.83;91524.09;2055159;69;20152;-75
2023/10/31 05:01:24;;;;;;;5.15;2.20;;;;;;;10.47;82.23;91524.50;2055084;69;20145;-75
2023/10/31 05:03:50;;;;;;;8.82;3.20;;;;;;;10.43;82.36;91519.44;2055076;69;20150;-76
2023/10/31 05:06:20;;;;;;;3.60;2.20;;;;;;;10.47;82.42;91524.50;2054953;69;20152;-75
2023/10/31 05:08:47;;;;;;;5.07;2.63;;;;;;;10.47;82.94;91535.78;2054976;69;20138;-76
2023/10/31 05:11:13;;;;;;;7.07;3.03;;;;;;;10.50;82.38;91542.94;2055017;69;20146;-76
2023/10/31 05:13:39;;;;;;;5.07;3.08;;;;;;;10.28;83.05;91542.72;2051815;70;20158;-74
2023/10/31 05:16:05;;;;;;;5.60;3.30;;;;;;;10.34;82.53;91550.69;2054999;69;20153;-75
2023/10/31 05:18:31;;;;;;;3.03;2.42;;;;;;;10.37;82.95;91558.56;2055061;69;20556;-76
2023/10/31 05:20:57;;;;;;;2.35;1.15;;;;;;;10.43;82.43;91558.09;2055058;69;20142;-75
2023/10/31 05:23:22;;;;;;;0.73;0.63;;;;;;;10.41;82.52;91550.31;2054964;69;20237;-75
2023/10/31 05:25:48;;;;;;;2.83;0.40;;;;;;;10.42;82.28;91540.50;2057216;69;20153;-76
2023/10/31 05:28:13;;;;;;;4.38;0.30;;;;;;;10.32;82.56;91534.44;2054937;69;20146;-76
2023/10/31 05:30:39;;;;;;;1.00;0.28;;;;;;;10.34;81.90;91540.16;2055042;69;20142;-76
2023/10/31 05:33:04;;;;;;;0.10;0.10;;;;;;;10.29;82.24;91558.22;2054439;69;20119;-77
2023/10/31 05:35:30;;;;;;;2.83;0.30;;;;;;;10.33;82.19;91555.59;2055138;69;20641;-76
2023/10/31 05:37:56;;;;;;;2.00;0.40;;;;;;;10.30;82.24;91553.31;2054909;69;20509;-76
2023/10/31 05:40:24;;;;;;;2.50;0.80;;;;;;;10.31;81.81;91572.38;2054231;69;20629;-74
2023/10/31 05:42:50;;;;;;;1.13;0.40;;;;;;;10.28;81.47;91578.56;2054998;69;20610;-78
2023/10/31 05:45:16;;;;;;;5.03;0.40;;;;;;;10.26;82.18;91584.06;2055798;69;20170;-75
2023/10/31 05:47:41;;;;;;;0.77;0.20;;;;;;;10.32;81.73;91589.97;2055055;69;20180;-75
2023/10/31 05:50:08;;;;;;;1.13;0.20;;;;;;;10.29;81.94;91585.63;2055047;69;20153;-75
2023/10/31 05:52:34;;;;;;;0.95;0.43;;;;;;;10.30;81.61;91595.50;2054948;69;20154;-76
2023/10/31 05:55:00;;;;;;;0.88;0.32;;;;;;;10.34;81.48;91601.31;2054891;69;20138;-74
2023/10/31 05:57:26;;;;;;;0.10;0.10;;;;;;;10.26;81.66;91610.09;2054921;69;20146;-76
2023/10/31 05:59:51;;;;;;;0.73;0.30;;;;;;;10.05;81.96;91611.28;2054904;69;20177;-75
2023/10/31 06:02:17;;;;;;;0.40;0.40;;;;;;;10.18;82.24;91609.75;2054904;70;20153;-76
2023/10/31 06:04:43;;;;;;;1.38;0.50;;;;;;;10.23;81.64;91602.94;2054912;69;20160;-74
2023/10/31 06:07:11;;;;;;;0.43;0.20;;;;;;;10.13;82.07;91605.31;2054944;69;20150;-75
2023/10/31 06:09:36;;;;;;;0.30;0.30;;;;;;;10.14;81.86;91610.28;2054309;69;20186;-75
2023/10/31 06:12:03;;;;;;;0.20;0.20;;;;;;;10.10;81.53;91604.47;2054542;69;20707;-75
2023/10/31 06:14:29;;;;;;;1.08;0.10;;;;;;;10.14;81.33;91629.25;2054915;69;20225;-76
2023/10/31 06:16:56;;;;;;;2.35;0.30;;;;;;;10.09;81.22;91630.41;2057075;69;20143;-76
2023/10/31 06:19:23;;;;;;;1.45;0.30;;;;;;;9.92;81.95;91640.91;2057106;69;20174;-75
2023/10/31 06:21:49;;;;;;;0.57;0.38;;;;;;;10.00;82.00;91645.47;2054956;69;20220;-77
2023/10/31 06:24:14;;;;;;;1.35;0.50;;;;;;;9.98;80.88;91659.41;2054796;70;20134;-75
2023/10/31 06:26:40;;;;;;;0.73;0.40;;;;;;;10.01;81.21;91672.94;2055039;70;20138;-76
2023/10/31 06:29:07;;;;;;;0.30;0.30;;;;;;;10.03;81.63;91681.47;2054844;70;20142;-76
2023/10/31 06:31:33;;;;;;;1.17;0.45;;;;;;;9.53;81.04;91679.78;2055031;70;20631;-76
2023/10/31 06:33:59;;;;;;;0.25;0.20;;;;;;;9.90;80.39;91671.75;2055103;70;20161;-77
2023/10/31 06:36:24;;;;;;;0.45;0.30;;;;;;;9.98;79.86;91688.25;2054835;69;20142;-75
2023/10/31 06:38:50;;;;;;;0.70;0.40;;;;;;;10.05;80.46;91686.47;2054681;69;20150;-74
2023/10/31 06:41:16;;;;;;;0.20;0.20;;;;;;;9.88;79.81;91684.97;2054785;70;20202;-75
2023/10/31 06:43:41;;;;;;;12.43;0.40;;;;;;;9.61;79.66;91680.91;2054891;69;20264;-76
2023/10/31 06:46:07;;;;;;;0.20;0.20;;;;;;;9.84;80.49;91684.78;2054974;70;20146;-77
2023/10/31 06:48:33;;;;;;;0.98;0.20;;;;;;;9.93;80.22;91683.81;2054749;69;20597;-76
2023/10/31 06:50:59;;;;;;;0.82;0.30;;;;;;;9.89;81.13;91683.63;2054914;69;20149;-75
2023/10/31 06:53:26;;;;;;;0.63;0.30;;;;;;;9.90;80.77;91682.28;2054742;69;20150;-76
2023/10/31 06:55:51;;;;;;;1.42;0.10;;;;;;;9.94;80.72;91696.50;2054966;69;20589;-76
2023/10/31 06:58:17;;;;;;;1.65;0.95;;;;;;;9.97;80.64;91691.72;2054842;69;20594;-77
2023/10/31 07:00:43;;;;;;;0.40;0.40;;;;;;;9.94;80.24;91690.88;2054417;70;20237;-77
2023/10/31 07:03:11;;;;;;;1.15;0.47;;;;;;;9.98;80.45;91685.44;2054814;69;20142;-77
2023/10/31 07:05:40;;;;;;;0.57;0.50;;;;;;;9.99;80.60;91669.31;2054876;69;20600;-75
2023/10/31 07:08:06;;;;;;;1.40;0.40;;;;;;;9.98;81.02;91673.47;2054762;69;20127;-75
2023/10/31 07:10:31;;;;;;;0.40;0.38;;;;;;;9.90;81.33;91665.41;2051462;70;20644;-76
2023/10/31 07:12:58;;;;;;;0.43;0.30;;;;;;;9.92;81.13;91666.22;2054844;69;20632;-75
2023/10/31 07:15:25;;;;;;;5.65;0.70;;;;;;;9.86;81.38;91665.22;2054871;69;20218;-75
2023/10/31 07:17:50;;;;;;;1.10;0.60;;;;;;;9.71;81.88;91669.44;2054716;70;20596;-77
2023/10/31 07:20:16;;;;;;;2.33;1.67;;;;;;;9.85;82.13;91684.19;2054393;70;20182;-78
2023/10/31 07:22:43;;;;;;;1.55;1.17;;;;;;;9.82;81.35;91679.09;2057151;69;20193;-76
2023/10/31 07:25:09;;;;;;;2.67;1.50;;;;;;;9.89;81.44;91678.00;2054679;69;20175;-76
2023/10/31 07:27:35;;;;;;;1.23;0.80;;;;;;;9.84;80.71;91671.44;2054813;69;20154;-75
2023/10/31 07:30:06;;;;;;;2.70;0.80;;;;;;;9.61;81.83;91672.50;2055154;69;20532;-76
2023/10/31 07:32:34;;;;;;;3.33;2.20;;;;;;;9.59;81.61;91658.34;2055631;69;20193;-78
2023/10/31 07:35:00;;;;;;;1.95;1.50;;;;;;;9.62;81.87;91682.38;2055390;69;20157;-78
2023/10/31 07:37:25;;;;;;;5.30;1.60;;;;;;;9.42;82.75;91684.22;2055211;69;20154;-79
2023/10/31 07:39:51;;;;;;;2.30;1.48;;;;;;;9.66;82.55;91676.22;2054512;69;20645;-76
2023/10/31 07:42:17;;;;;;;3.55;1.80;;;;;;;9.87;81.84;91672.28;2055457;70;20158;-77
2023/10/31 07:44:43;;;;;;;2.95;1.98;;;;;;;9.85;81.47;91678.56;2055323;69;20142;-78
2023/10/31 07:47:09;;;;;;;4.72;1.90;;;;;;;9.96;81.74;91676.22;2054730;70;20150;-78
2023/10/31 07:49:34;;;;;;;5.40;1.65;;;;;;;9.93;82.13;91675.38;2055352;70;20137;-74
2023/10/31 07:52:00;;;;;;;2.17;0.90;;;;;;;9.93;81.84;91687.34;2057484;69;20145;-78
2023/10/31 07:54:27;;;;;;;1.05;0.80;;;;;;;10.05;81.49;91678.75;2055135;69;20612;-76
2023/10/31 07:56:54;;;;;;;2.33;0.70;;;;;;;10.10;81.60;91688.09;2055371;69;20248;-75
2023/10/31 07:59:19;;;;;;;0.95;0.57;;;;;;;10.19;81.19;91693.47;2055360;69;20238;-78
2023/10/31 08:01:45;;;;;;;1.35;0.82;;;;;;;10.16;80.87;91694.72;2055341;69;20564;-76
2023/10/31 08:04:11;;;;;;;13.63;5.32;;;;;;;10.03;81.22;91700.41;2055285;69;20150;-79
2023/10/31 08:06:36;;;;;;;8.43;5.50;;;;;;;10.10;81.54;91696.53;2057430;69;20141;-76
2023/10/31 08:09:02;;;;;;;5.00;3.67;;;;;;;10.30;81.07;91696.75;2055023;69;20201;-76
2023/10/31 08:11:29;;;;;;;7.88;4.72;;;;;;;10.37;80.57;91701.31;2055193;69;20122;-76
2023/10/31 08:13:55;;;;;;;6.63;2.88;;;;;;;10.38;81.16;91697.88;2055190;69;20146;-76
2023/10/31 08:16:21;;;;;;;5.38;2.50;;;;;;;10.37;80.91;91706.94;2055199;69;20149;-76
2023/10/31 08:18:46;;;;;;;5.60;3.20;;;;;;;10.16;81.38;91703.16;2055157;69;20646;-75
2023/10/31 08:21:12;;;;;;;1.80;1.40;;;;;;;10.42;81.39;91703.69;2055158;69;20240;-76
2023/10/31 08:23:38;;;;;;;2.22;1.45;;;;;;;10.55;80.71;91718.31;2057232;69;20134;-77
2023/10/31 08:26:04;;;;;;;1.95;1.10;;;;;;;10.61;80.84;91716.47;2055353;69;20513;-81
2023/10/31 08:28:30;;;;;;;1.58;1.08;;;;;;;10.24;81.30;91727.41;2055119;69;20594;-78
2023/10/31 08:30:57;;;;;;;1.98;1.65;;;;;;;10.53;81.71;91724.56;2055114;69;20149;-78
2023/10/31 08:33:24;;;;;;;1.10;0.90;;;;;;;10.66;80.67;91737.09;2054558;69;20173;-78
2023/10/31 08:35:51;;;;;;;3.38;1.20;;;;;;;10.46;80.36;91741.81;2054585;70;20142;-77
2023/10/31 08:38:17;;;;;;;1.05;0.95;;;;;;;10.62;79.53;91746.06;2055142;69;20229;-79
2023/10/31 08:40:43;;;;;;;1.92;1.20;;;;;;;10.51;79.62;91749.06;2054847;69;20201;-78
2023/10/31 08:43:09;;;;;;;2.10;1.08;;;;;;;10.67;80.11;91753.34;2054989;69;20153;-78
2023/10/31 08:45:36;;;;;;;4.32;1.00;;;;;;;10.67;79.76;91758.22;2055144;69;20162;-77
2023/10/31 08:48:03;;;;;;;1.70;0.90;;;;;;;10.83;79.91;91756.16;2055310;69;20693;-76
2023/10/31 08:50:28;;;;;;;2.65;0.82;;;;;;;10.86;80.20;91763.34;2055067;69;20216;-77
2023/10/31 08:52:54;;;;;;;0.88;0.70;;;;;;;10.86;80.29;91762.63;2057522;69;20158;-75
2023/10/31 08:55:20;;;;;;;1.75;0.90;;;;;;;10.90;80.11;91766.34;2054989;69;20130;-76
2023/10/31 08:57:47;;;;;;;0.75;0.60;;;;;;;10.93;80.67;91770.69;2055073;69;20149;-75
2023/10/31 09:00:13;;;;;;;0.73;0.73;;;;;;;11.10;80.42;91765.78;2055190;69;20229;-77
2023/10/31 09:02:39;;;;;;;1.02;0.80;;;;;;;11.11;80.47;91773.59;2055166;69;20160;-77
2023/10/31 09:05:05;;;;;;;1.80;0.82;;;;;;;11.21;80.13;91781.75;2055063;69;20146;-78
2023/10/31 09:07:32;;;;;;;1.95;0.80;;;;;;;11.23;80.37;91773.41;2055081;69;20153;-77
2023/10/31 09:10:00;;;;;;;1.15;0.65;;;;;;;11.37;79.85;91779.66;2057170;69;20164;-77
2023/10/31 09:12:25;;;;;;;1.13;0.77;;;;;;;11.49;79.73;91781.53;2055145;69;20708;-77
2023/10/31 09:14:52;;;;;;;1.95;0.50;;;;;;;11.63;79.49;91793.38;2055014;69;20176;-77
2023/10/31 09:17:18;;;;;;;0.85;0.63;;;;;;;11.65;77.74;91791.41;2055100;69;20134;-76
2023/10/31 09:19:44;;;;;;;1.02;0.85;;;;;;;11.60;79.19;91800.31;2055682;69;20157;-76
2023/10/31 09:22:09;;;;;;;2.72;1.33;;;;;;;11.78;78.51;91801.09;2056227;69;20154;-78
2023/10/31 09:24:35;;;;;;;3.15;1.60;;;;;;;11.67;77.71;91805.56;2055067;69;20152;-78
2023/10/31 09:27:00;;;;;;;1.83;1.50;;;;;;;11.58;76.17;91803.78;2055163;69;20521;-75
2023/10/31 09:29:26;;;;;;;4.22;1.80;;;;;;;11.67;77.14;91805.56;2055035;69;20525;-75
2023/10/31 09:31:51;;;;;;;2.38;1.70;;;;;;;11.79;76.99;91799.72;2055084;69;20172;-76
2023/10/31 09:34:18;;;;;;;2.53;1.75;;;;;;;11.92;75.71;91810.16;2055090;69;20173;-80
2023/10/31 09:36:43;;;;;;;2.15;1.90;;;;;;;11.90;74.97;91810.06;2055122;69;20170;-78
2023/10/31 09:39:09;;;;;;;2.13;1.60;;;;;;;11.35;75.15;91818.25;2054671;69;20585;-79
2023/10/31 09:41:34;;;;;;;1.83;1.38;;;;;;;11.69;75.26;91819.75;2055243;69;20138;-78
2023/10/31 09:44:00;;;;;;;1.60;1.20;;;;;;;11.97;75.10;91819.53;2055103;70;20518;-76
2023/10/31 09:46:28;;;;;;;3.42;1.40;;;;;;;11.82;75.07;91818.22;2055220;69;20157;-77
2023/10/31 09:48:55;;;;;;;2.95;1.35;;;;;;;12.00;75.34;91828.78;2055024;69;20162;-76
2023/10/31 09:51:21;;;;;;;1.90;1.63;;;;;;;12.12;75.82;91835.66;2054411;70;20288;-78
2023/10/31 09:53:47;;;;;;;1.40;1.30;;;;;;;12.22;76.19;91843.81;2054718;70;20165;-77
2023/10/31 09:56:14;;;;;;;2.75;1.55;;;;;;;12.30;76.62;91844.16;2054951;69;20149;-78
2023/10/31 09:58:41;;;;;;;1.55;1.40;;;;;;;12.37;75.08;91836.66;2054448;69;20162;-75
2023/10/31 10:01:08;;;;;;;2.80;2.10;;;;;;;12.29;75.33;91834.25;2054942;69;20185;-74
2023/10/31 10:03:35;;;;;;;6.25;1.90;;;;;;;12.36;75.32;91832.38;2054849;69;20138;-75
2023/10/31 10:06:02;;;;;;;3.53;1.38;;;;;;;12.41;75.53;91842.44;2054576;69;20161;-76
2023/10/31 10:08:28;;;;;;;1.75;1.40;;;;;;;12.40;76.05;91844.56;2054885;69;20226;-79
2023/10/31 10:10:54;;;;;;;1.48;1.20;;;;;;;12.47;76.65;91848.38;2054971;69;20185;-79
2023/10/31 10:13:21;;;;;;;4.55;1.60;;;;;;;12.58;74.94;91843.84;2054943;69;20173;-76
2023/10/31 10:15:49;;;;;;;32.55;18.02;;;;;;;12.63;74.01;91836.97;2054920;69;20530;-75
2023/10/31 10:18:32;;;;;;;73.40;46.38;;;;;;;12.77;74.28;91833.97;2054940;69;20158;-76
2023/10/31 10:20:58;;;;;;;;;;;;;;;12.86;74.46;91847.03;2055024;69;20145;-76
2023/10/31 10:23:25;;;;;;;4.03;2.00;;;;;;;12.86;75.00;91849.88;2054729;69;20120;-76
2023/10/31 10:25:52;;;;;;;2.75;1.60;;;;;;;12.83;75.50;91854.72;2054882;69;20593;-75
2023/10/31 10:28:19;;;;;;;2.33;1.80;;;;;;;12.94;75.36;91856.56;2055013;69;20252;-78
2023/10/31 10:30:49;;;;;;;4.28;1.92;;;;;;;13.05;74.37;91862.59;2054925;69;20149;-75
2023/10/31 10:33:15;;;;;;;37.38;15.40;;;;;;;13.11;72.51;91855.09;2054865;69;20260;-76
2023/10/31 10:35:42;;;;;;;3.10;2.30;;;;;;;12.77;71.77;91848.09;2055062;69;20153;-74
2023/10/31 10:38:15;;;;;;;8.90;4.85;;;;;;;12.70;71.64;91841.50;2054805;69;20138;-75
2023/10/31 10:40:43;;;;;;;6.30;3.35;;;;;;;12.00;71.58;91832.31;2054710;69;20154;-75
2023/10/31 10:43:25;;;;;;;8.57;5.18;;;;;;;12.26;71.44;91832.69;2054810;70;20150;-75
2023/10/31 10:45:56;;;;;;;7.47;3.00;;;;;;;12.59;71.21;91834.00;2055097;69;20149;-76
2023/10/31 10:48:23;;;;;;;3.83;2.58;;;;;;;12.50;70.34;91846.34;2054833;70;20146;-76
2023/10/31 10:50:57;;;;;;;3.17;2.30;;;;;;;12.57;71.53;91850.84;2054413;69;20156;-75
2023/10/31 10:53:27;;;;;;;1.50;1.17;;;;;;;12.18;69.65;91835.91;2054781;69;20626;-75
2023/10/31 10:56:03;;;;;;;1.50;1.10;;;;;;;12.45;70.57;91834.88;2054837;69;20615;-76
2023/10/31 10:58:55;;;;;;;1.85;1.17;;;;;;;12.91;69.25;91835.25;2054858;69;20138;-75
2023/10/31 11:01:22;;;;;;;1.70;1.00;;;;;;;13.28;66.98;91839.47;2054919;69;20460;-75
2023/10/31 11:03:49;;;;;;;6.35;4.40;;;;;;;13.75;66.58;91834.81;2054769;69;20588;-75
2023/10/31 11:06:16;;;;;;;4.72;2.78;;;;;;;13.72;66.06;91831.88;2055294;69;20141;-75
2023/10/31 11:08:42;;;;;;;5.60;3.05;;;;;;;13.82;65.62;91837.16;2055266;69;20565;-76
2023/10/31 11:11:09;;;;;;;3.97;2.70;;;;;;;13.77;66.26;91829.94;2055999;70;20184;-78
2023/10/31 11:13:36;;;;;;;2.55;1.75;;;;;;;14.10;67.16;91833.88;2057647;69;20152;-77
2023/10/31 11:16:13;;;;;;;2.08;1.35;;;;;;;14.08;69.59;91819.66;2055369;69;20727;-78
2023/10/31 11:18:39;;;;;;;2.40;1.50;;;;;;;14.25;67.67;91813.16;2055357;69;20153;-79
2023/10/31 11:21:05;;;;;;;4.78;2.22;;;;;;;13.78;64.46;91819.34;2054820;69;20150;-78
2023/10/31 11:23:30;;;;;;;2.25;1.35;;;;;;;12.91;66.66;91818.31;2055132;69;20128;-76
2023/10/31 11:25:56;;;;;;;1.88;1.33;;;;;;;13.76;64.97;91820.00;2055349;69;20145;-76
2023/10/31 11:28:22;;;;;;;1.30;1.00;;;;;;;13.03;64.34;91809.56;2057498;69;20486;-81
2023/10/31 11:30:49;;;;;;;1.58;1.23;;;;;;;12.62;66.21;91808.03;2054933;69;20678;-77